Time;durP1;ratioP1;P1;durP2;ratioP2;P2;SDS_P1;SDS_P2;PMS_P1;PMS_P2;Temp;Humidity;BMP_temperature;BMP_pressure;BME280_temperature;BME280_humidity;BME280_pressure;Samples;Min_cycle;Max_cycle;Signal;HPM_P1;HPM_P2
2021/03/16 00:00:12;;;;;;;8.38;2.03;;;;;;;;;;5006931;28;20060;-52
2021/03/16 00:02:39;;;;;;;10.50;2.47;;;;;;;;;;5016230;28;20037;-49
2021/03/16 00:05:07;;;;;;;7.50;1.83;;;;;;;;;;5019334;28;20029;-50
2021/03/16 00:07:34;;;;;;;4.85;1.67;;;;;;;;;;5026273;28;20141;-51
2021/03/16 00:10:01;;;;;;;4.32;1.80;;;;;;;;;;5023258;28;20041;-49
2021/03/16 00:12:28;;;;;;;3.80;1.95;;;;;;;;;;5027131;28;20033;-48
2021/03/16 00:14:55;;;;;;;3.75;1.90;;;;;;;;;;5013568;28;20025;-50
2021/03/16 00:17:22;;;;;;;4.30;2.10;;;;;;;;;;5009289;28;20507;-49
2021/03/16 00:19:49;;;;;;;4.95;2.08;;;;;;;;;;5012042;28;20034;-49
2021/03/16 00:22:16;;;;;;;4.15;1.83;;;;;;;;;;5022163;28;20460;-49
2021/03/16 00:24:44;;;;;;;3.00;1.80;;;;;;;;;;5009124;28;20026;-50
2021/03/16 00:27:11;;;;;;;4.57;1.50;;;;;;;;;;5024318;28;20028;-52
2021/03/16 00:29:38;;;;;;;7.95;1.52;;;;;;;;;;5026701;28;20068;-50
2021/03/16 00:32:05;;;;;;;5.13;1.70;;;;;;;;;;5014006;28;20029;-50
2021/03/16 00:34:32;;;;;;;10.13;1.58;;;;;;;;;;5023223;28;20022;-47
2021/03/16 00:36:59;;;;;;;6.82;1.98;;;;;;;;;;5024708;28;20040;-48
2021/03/16 00:42:29;;;;;;;4.40;1.25;;;;;;;;;;5019381;28;20037;-49
2021/03/16 00:44:58;;;;;;;11.38;1.55;;;;;;;;;;5022294;28;20047;-49
2021/03/16 00:47:25;;;;;;;3.13;1.30;;;;;;;;;;5020169;28;20026;-56
2021/03/16 00:49:52;;;;;;;6.85;1.60;;;;;;;;;;5020361;28;20048;-49
2021/03/16 00:52:19;;;;;;;6.28;1.88;;;;;;;;;;4998880;28;20520;-50
2021/03/16 00:54:46;;;;;;;2.90;1.05;;;;;;;;;;5027399;28;20041;-47
2021/03/16 00:57:13;;;;;;;2.20;1.10;;;;;;;;;;5000560;28;20030;-51
2021/03/16 00:59:40;;;;;;;3.90;1.42;;;;;;;;;;5022948;28;20037;-47
2021/03/16 01:02:08;;;;;;;5.75;1.27;;;;;;;;;;5020169;28;20017;-49
2021/03/16 01:04:35;;;;;;;3.22;1.73;;;;;;;;;;5025289;28;20064;-51
2021/03/16 01:07:02;;;;;;;2.78;1.10;;;;;;;;;;5024596;28;20122;-51
2021/03/16 01:09:29;;;;;;;5.18;1.10;;;;;;;;;;5019061;28;20022;-48
2021/03/16 01:11:57;;;;;;;4.15;1.23;;;;;;;;;;5015962;28;20033;-51
2021/03/16 01:14:24;;;;;;;1.77;1.05;;;;;;;;;;5018036;28;20014;-50
2021/03/16 01:16:50;;;;;;;2.92;1.42;;;;;;;;;;5021699;28;20026;-49
2021/03/16 01:19:17;;;;;;;4.03;1.20;;;;;;;;;;5026665;28;20018;-50
2021/03/16 01:21:44;;;;;;;8.88;1.48;;;;;;;;;;5019725;28;20079;-53
2021/03/16 01:24:11;;;;;;;10.65;1.80;;;;;;;;;;5024662;28;20100;-51
2021/03/16 01:26:38;;;;;;;8.60;1.33;;;;;;;;;;5023371;28;20029;-49
2021/03/16 01:29:05;;;;;;;6.95;1.10;;;;;;;;;;5019938;28;20033;-48
2021/03/16 01:31:33;;;;;;;6.22;1.25;;;;;;;;;;5018452;28;20025;-51
2021/03/16 01:34:00;;;;;;;3.03;1.10;;;;;;;;;;5026167;28;20022;-48
2021/03/16 01:36:30;;;;;;;4.60;1.40;;;;;;;;;;5023788;28;20550;-51
2021/03/16 01:39:00;;;;;;;2.38;1.23;;;;;;;;;;5027036;28;20061;-50
2021/03/16 01:41:27;;;;;;;6.88;1.13;;;;;;;;;;5028542;28;20026;-48
2021/03/16 01:43:54;;;;;;;2.70;1.10;;;;;;;;;;5028392;28;20049;-49
2021/03/16 01:46:21;;;;;;;5.95;1.10;;;;;;;;;;5029090;28;20109;-50
2021/03/16 01:48:48;;;;;;;12.68;1.25;;;;;;;;;;4962598;28;1891590;-51
2021/03/16 01:51:15;;;;;;;3.28;1.38;;;;;;;;;;5027645;28;20432;-51
2021/03/16 01:53:44;;;;;;;3.35;1.30;;;;;;;;;;5025908;28;20029;-53
2021/03/16 01:56:12;;;;;;;1.67;1.02;;;;;;;;;;5010803;28;20050;-55
2021/03/16 01:58:40;;;;;;;2.05;1.00;;;;;;;;;;5028073;28;20120;-56
2021/03/16 02:01:07;;;;;;;4.80;1.20;;;;;;;;;;5021644;28;20104;-53
2021/03/16 02:03:34;;;;;;;5.47;1.13;;;;;;;;;;5025591;28;20143;-54
2021/03/16 02:06:02;;;;;;;4.38;1.20;;;;;;;;;;5024898;28;20074;-56
2021/03/16 02:08:47;;;;;;;5.07;1.40;;;;;;;;;;5024235;28;20018;-53
2021/03/16 02:11:19;;;;;;;2.85;1.40;;;;;;;;;;5024414;28;20036;-49
2021/03/16 02:13:54;;;;;;;2.92;1.00;;;;;;;;;;5024863;28;20026;-51
2021/03/16 02:16:28;;;;;;;3.13;1.10;;;;;;;;;;5026984;28;20463;-52
2021/03/16 02:18:58;;;;;;;4.20;1.17;;;;;;;;;;5033734;28;20028;-51
2021/03/16 02:21:36;;;;;;;4.28;1.20;;;;;;;;;;5034427;28;20384;-52
2021/03/16 02:24:09;;;;;;;4.38;1.02;;;;;;;;;;5027549;28;20044;-49
2021/03/16 02:26:42;;;;;;;1.58;0.93;;;;;;;;;;5033690;28;20030;-50
2021/03/16 02:29:11;;;;;;;4.20;1.02;;;;;;;;;;5033348;28;20026;-54
2021/03/16 02:31:42;;;;;;;1.52;0.90;;;;;;;;;;5029025;28;20461;-53
2021/03/16 02:34:10;;;;;;;3.28;1.20;;;;;;;;;;5033718;28;20025;-52
2021/03/16 02:36:38;;;;;;;2.33;1.13;;;;;;;;;;5033636;28;20033;-52
2021/03/16 02:39:06;;;;;;;2.35;1.00;;;;;;;;;;5032995;28;20406;-53
2021/03/16 02:41:33;;;;;;;2.85;1.00;;;;;;;;;;5028927;28;20105;-55
2021/03/16 02:44:01;;;;;;;2.25;1.10;;;;;;;;;;5033138;28;20204;-49
2021/03/16 02:46:28;;;;;;;1.70;1.00;;;;;;;;;;5034081;28;20052;-53
2021/03/16 02:48:56;;;;;;;2.38;1.00;;;;;;;;;;5031847;28;20382;-53
2021/03/16 02:51:24;;;;;;;1.20;0.90;;;;;;;;;;5023537;28;20041;-51
2021/03/16 02:53:53;;;;;;;2.25;0.93;;;;;;;;;;5011144;28;20061;-49
2021/03/16 02:56:21;;;;;;;3.45;0.93;;;;;;;;;;5013551;28;20036;-49
2021/03/16 02:58:49;;;;;;;1.58;1.00;;;;;;;;;;5016995;28;20083;-52
2021/03/16 03:01:17;;;;;;;1.92;1.00;;;;;;;;;;5029278;28;20057;-48
2021/03/16 03:03:46;;;;;;;2.85;0.90;;;;;;;;;;5031945;28;20022;-53
2021/03/16 03:06:14;;;;;;;2.35;0.85;;;;;;;;;;5033613;28;20083;-51
2021/03/16 03:08:43;;;;;;;1.98;0.85;;;;;;;;;;5033204;28;20501;-51
2021/03/16 03:11:11;;;;;;;3.63;1.10;;;;;;;;;;5014072;28;20029;-51
2021/03/16 03:13:38;;;;;;;1.52;0.70;;;;;;;;;;5029974;28;20026;-50
2021/03/16 03:16:05;;;;;;;1.40;1.02;;;;;;;;;;5033335;28;20097;-51
2021/03/16 03:18:32;;;;;;;2.72;1.20;;;;;;;;;;5033044;28;20022;-48
2021/03/16 03:21:01;;;;;;;4.07;1.00;;;;;;;;;;5032270;28;20053;-51
2021/03/16 03:23:31;;;;;;;1.80;1.00;;;;;;;;;;5028396;28;20385;-53
2021/03/16 03:26:02;;;;;;;1.75;1.00;;;;;;;;;;5032831;28;20040;-50
2021/03/16 03:28:31;;;;;;;2.67;1.20;;;;;;;;;;5033094;28;20032;-50
2021/03/16 03:31:01;;;;;;;1.92;1.10;;;;;;;;;;5032664;28;20101;-49
2021/03/16 03:33:32;;;;;;;1.70;0.90;;;;;;;;;;5028464;28;20034;-53
2021/03/16 03:36:01;;;;;;;2.25;1.10;;;;;;;;;;5015462;28;20374;-52
2021/03/16 03:38:28;;;;;;;1.55;0.98;;;;;;;;;;5032791;28;20465;-50
2021/03/16 03:40:56;;;;;;;3.40;1.10;;;;;;;;;;5032756;28;20477;-48
2021/03/16 03:43:24;;;;;;;1.10;0.90;;;;;;;;;;5028172;28;20091;-52
2021/03/16 03:45:52;;;;;;;2.35;0.80;;;;;;;;;;5032846;28;20432;-51
2021/03/16 03:48:21;;;;;;;1.05;0.80;;;;;;;;;;5032482;28;20122;-49
2021/03/16 03:50:51;;;;;;;1.63;0.82;;;;;;;;;;5032455;28;20025;-49
2021/03/16 03:53:18;;;;;;;3.05;0.90;;;;;;;;;;5028062;28;20434;-49
2021/03/16 03:55:46;;;;;;;1.55;1.05;;;;;;;;;;5032606;28;20096;-50
2021/03/16 03:58:19;;;;;;;2.03;0.98;;;;;;;;;;5032439;28;20367;-50
2021/03/16 04:00:48;;;;;;;1.23;0.70;;;;;;;;;;5032227;28;20104;-47
2021/03/16 04:03:15;;;;;;;1.42;0.90;;;;;;;;;;5027730;28;20079;-46
2021/03/16 04:05:42;;;;;;;2.17;1.00;;;;;;;;;;5032234;28;20024;-52
2021/03/16 04:08:11;;;;;;;2.10;1.13;;;;;;;;;;5032531;28;20034;-50
2021/03/16 04:10:38;;;;;;;1.20;0.77;;;;;;;;;;5031922;28;20025;-49
2021/03/16 04:13:05;;;;;;;2.70;1.10;;;;;;;;;;5028237;28;20870;-50
2021/03/16 04:15:33;;;;;;;1.63;1.02;;;;;;;;;;5032165;28;20105;-50
2021/03/16 04:18:01;;;;;;;2.38;0.80;;;;;;;;;;5032349;28;20088;-49
2021/03/16 04:20:28;;;;;;;1.45;0.75;;;;;;;;;;5031679;28;20027;-48
2021/03/16 04:22:55;;;;;;;2.55;0.90;;;;;;;;;;5030506;28;20029;-48
2021/03/16 04:25:22;;;;;;;1.70;0.80;;;;;;;;;;5028984;28;20025;-49
2021/03/16 04:27:49;;;;;;;3.67;1.15;;;;;;;;;;5032273;28;20029;-48
2021/03/16 04:30:16;;;;;;;1.60;0.70;;;;;;;;;;5031842;28;20025;-49
2021/03/16 04:32:45;;;;;;;1.92;1.10;;;;;;;;;;5031492;28;20030;-49
2021/03/16 04:35:12;;;;;;;1.10;0.75;;;;;;;;;;5027191;28;20033;-49
2021/03/16 04:37:40;;;;;;;1.52;0.90;;;;;;;;;;5032165;28;20029;-52
2021/03/16 04:40:08;;;;;;;1.15;1.00;;;;;;;;;;5031650;28;20367;-52
2021/03/16 04:42:35;;;;;;;2.15;0.90;;;;;;;;;;5031220;28;20034;-51
2021/03/16 04:45:02;;;;;;;2.20;1.05;;;;;;;;;;5027363;28;20025;-50
2021/03/16 04:47:29;;;;;;;4.30;1.00;;;;;;;;;;5031974;28;20478;-49
2021/03/16 04:49:56;;;;;;;1.55;0.90;;;;;;;;;;5031479;28;20081;-51
2021/03/16 04:52:23;;;;;;;2.25;0.80;;;;;;;;;;5031377;28;20060;-50
2021/03/16 04:54:50;;;;;;;3.83;1.17;;;;;;;;;;5026981;28;20470;-49
2021/03/16 04:57:17;;;;;;;3.22;1.20;;;;;;;;;;5014622;28;20415;-47
2021/03/16 04:59:44;;;;;;;2.00;1.20;;;;;;;;;;5031987;28;20083;-48
2021/03/16 05:02:11;;;;;;;2.17;1.00;;;;;;;;;;5031417;28;20026;-51
2021/03/16 05:04:38;;;;;;;1.77;0.95;;;;;;;;;;5026632;28;20108;-51
2021/03/16 05:07:05;;;;;;;3.55;1.20;;;;;;;;;;5032039;28;20033;-54
2021/03/16 05:09:32;;;;;;;2.95;1.05;;;;;;;;;;5031996;28;20477;-49
2021/03/16 05:11:59;;;;;;;1.40;0.90;;;;;;;;;;5030974;28;20371;-49
2021/03/16 05:14:26;;;;;;;2.30;1.27;;;;;;;;;;5027775;28;20095;-49
2021/03/16 05:16:53;;;;;;;2.65;0.90;;;;;;;;;;5030995;28;20037;-48
2021/03/16 05:19:20;;;;;;;2.17;0.98;;;;;;;;;;5031494;28;20100;-50
2021/03/16 05:21:47;;;;;;;2.80;0.80;;;;;;;;;;5031266;28;20473;-49
2021/03/16 05:24:14;;;;;;;1.88;0.90;;;;;;;;;;5030615;28;20018;-48
2021/03/16 05:26:41;;;;;;;1.77;1.05;;;;;;;;;;5027714;28;20025;-48
2021/03/16 05:29:08;;;;;;;1.73;0.82;;;;;;;;;;5031386;28;20417;-47
2021/03/16 05:31:35;;;;;;;2.47;1.10;;;;;;;;;;5031354;28;20434;-47
2021/03/16 05:34:02;;;;;;;1.60;0.90;;;;;;;;;;5030883;28;20029;-49
2021/03/16 05:36:29;;;;;;;3.17;0.82;;;;;;;;;;5026750;28;20025;-48
2021/03/16 05:38:56;;;;;;;5.28;0.90;;;;;;;;;;5031640;28;20025;-48
2021/03/16 05:41:23;;;;;;;6.07;0.95;;;;;;;;;;5031410;28;20025;-49
2021/03/16 05:43:50;;;;;;;2.45;1.20;;;;;;;;;;5030536;28;20030;-49
2021/03/16 05:46:17;;;;;;;4.10;1.10;;;;;;;;;;5029464;28;20021;-49
2021/03/16 05:48:54;;;;;;;4.03;1.10;;;;;;;;;;5034686;28;20045;-49
2021/03/16 05:51:22;;;;;;;2.70;1.10;;;;;;;;;;5034324;28;20030;-49
2021/03/16 05:53:50;;;;;;;2.17;1.10;;;;;;;;;;5034156;28;20030;-48
2021/03/16 05:56:17;;;;;;;2.53;1.10;;;;;;;;;;5029964;28;20032;-51
2021/03/16 05:58:45;;;;;;;2.83;0.90;;;;;;;;;;5034860;28;20017;-48
2021/03/16 06:01:14;;;;;;;4.75;1.00;;;;;;;;;;5034877;28;20025;-50
2021/03/16 06:03:41;;;;;;;1.92;1.05;;;;;;;;;;5016493;28;20041;-49
2021/03/16 06:06:11;;;;;;;2.33;0.90;;;;;;;;;;5029977;28;20104;-50
2021/03/16 06:08:38;;;;;;;3.08;1.33;;;;;;;;;;5034767;28;20026;-49
2021/03/16 06:11:08;;;;;;;1.73;0.80;;;;;;;;;;5034591;28;20029;-49
2021/03/16 06:13:40;;;;;;;2.42;0.90;;;;;;;;;;5034570;28;20021;-48
2021/03/16 06:16:14;;;;;;;2.88;1.00;;;;;;;;;;5029520;28;20544;-49
2021/03/16 06:18:44;;;;;;;1.92;1.00;;;;;;;;;;5034593;28;20026;-50
2021/03/16 06:21:11;;;;;;;1.52;0.80;;;;;;;;;;5034555;28;20029;-49
2021/03/16 06:23:39;;;;;;;1.27;1.00;;;;;;;;;;5033789;28;20061;-50
2021/03/16 06:26:15;;;;;;;1.67;0.88;;;;;;;;;;5030567;28;20122;-49
2021/03/16 06:28:42;;;;;;;2.60;0.82;;;;;;;;;;5034149;28;20030;-50
2021/03/16 06:31:09;;;;;;;2.45;0.93;;;;;;;;;;5034301;28;20033;-49
2021/03/16 06:33:36;;;;;;;1.20;0.90;;;;;;;;;;5033807;28;20104;-50
2021/03/16 06:36:07;;;;;;;2.90;1.00;;;;;;;;;;5032666;28;20037;-50
2021/03/16 06:38:35;;;;;;;2.63;1.15;;;;;;;;;;5031561;28;20497;-48
2021/03/16 06:41:16;;;;;;;2.13;0.88;;;;;;;;;;5034003;28;20021;-48
2021/03/16 06:43:43;;;;;;;1.50;0.73;;;;;;;;;;5033363;28;20056;-50
2021/03/16 06:46:10;;;;;;;1.58;0.88;;;;;;;;;;5033206;28;20029;-48
2021/03/16 06:48:38;;;;;;;1.40;0.90;;;;;;;;;;5029628;28;20402;-49
2021/03/16 06:51:09;;;;;;;1.77;0.80;;;;;;;;;;5033906;28;20064;-53
2021/03/16 06:53:36;;;;;;;2.58;0.70;;;;;;;;;;5033144;28;20489;-51
2021/03/16 06:56:04;;;;;;;1.08;0.70;;;;;;;;;;5032729;28;20024;-48
2021/03/16 06:58:32;;;;;;;4.35;1.35;;;;;;;;;;5028622;28;20064;-48
2021/03/16 07:01:16;;;;;;;0.85;0.70;;;;;;;;;;5033826;28;20485;-55
2021/03/16 07:03:45;;;;;;;1.10;0.82;;;;;;;;;;5033015;28;20037;-51
2021/03/16 07:06:16;;;;;;;2.88;0.90;;;;;;;;;;5033531;28;20067;-52
2021/03/16 07:08:44;;;;;;;1.20;0.73;;;;;;;;;;5028806;28;20033;-53
2021/03/16 07:11:23;;;;;;;1.30;0.82;;;;;;;;;;5033519;28;20025;-50
2021/03/16 07:13:51;;;;;;;0.88;0.60;;;;;;;;;;5015043;28;20040;-49
2021/03/16 07:16:18;;;;;;;2.85;0.82;;;;;;;;;;5033298;28;20515;-53
2021/03/16 07:18:46;;;;;;;2.10;0.80;;;;;;;;;;5028596;28;20030;-51
2021/03/16 07:21:34;;;;;;;1.83;0.90;;;;;;;;;;5033181;28;20524;-48
2021/03/16 07:24:08;;;;;;;2.60;0.80;;;;;;;;;;5032495;28;20508;-49
2021/03/16 07:26:36;;;;;;;2.35;0.80;;;;;;;;;;5033107;28;20026;-51
2021/03/16 07:29:07;;;;;;;1.15;0.80;;;;;;;;;;5028516;28;20108;-50
2021/03/16 07:31:38;;;;;;;0.90;0.73;;;;;;;;;;5033036;28;20486;-53
2021/03/16 07:34:08;;;;;;;1.48;0.73;;;;;;;;;;5032529;28;20041;-54
2021/03/16 07:36:36;;;;;;;0.85;0.63;;;;;;;;;;5032706;28;20105;-50
2021/03/16 07:39:04;;;;;;;1.45;0.70;;;;;;;;;;5028108;28;20029;-50
2021/03/16 07:41:31;;;;;;;1.42;0.77;;;;;;;;;;5033011;28;20029;-51
2021/03/16 07:44:03;;;;;;;1.13;0.82;;;;;;;;;;5032276;28;20436;-50
2021/03/16 07:46:44;;;;;;;1.35;0.90;;;;;;;;;;5032546;28;20028;-48
2021/03/16 07:49:12;;;;;;;1.75;0.73;;;;;;;;;;5028009;28;20107;-54
2021/03/16 07:51:41;;;;;;;1.33;0.82;;;;;;;;;;5032736;28;20044;-50
2021/03/16 07:54:09;;;;;;;1.50;0.70;;;;;;;;;;5032085;28;20112;-50
2021/03/16 07:56:37;;;;;;;1.25;0.80;;;;;;;;;;5014793;28;20035;-52
2021/03/16 07:59:05;;;;;;;1.40;0.85;;;;;;;;;;5027934;28;20029;-49
2021/03/16 08:01:32;;;;;;;2.47;0.70;;;;;;;;;;5032661;28;20048;-48
2021/03/16 08:04:05;;;;;;;1.13;0.80;;;;;;;;;;5032557;28;20033;-52
2021/03/16 08:06:34;;;;;;;1.63;0.70;;;;;;;;;;5032436;28;20095;-52
2021/03/16 08:09:01;;;;;;;1.20;0.80;;;;;;;;;;5027214;28;20040;-50
2021/03/16 08:11:38;;;;;;;2.08;0.82;;;;;;;;;;5032260;28;20060;-50
2021/03/16 08:14:05;;;;;;;2.50;0.93;;;;;;;;;;5032333;28;20121;-49
2021/03/16 08:16:36;;;;;;;0.68;0.57;;;;;;;;;;5031767;28;20018;-51
2021/03/16 08:19:13;;;;;;;1.70;0.67;;;;;;;;;;5027410;28;20029;-47
2021/03/16 08:21:41;;;;;;;2.38;0.95;;;;;;;;;;5032230;28;20036;-49
2021/03/16 08:24:09;;;;;;;2.05;0.75;;;;;;;;;;5031977;28;20017;-49
2021/03/16 08:26:43;;;;;;;1.30;0.80;;;;;;;;;;5031615;28;20029;-48
2021/03/16 08:29:10;;;;;;;1.38;0.88;;;;;;;;;;5027651;28;20033;-49
2021/03/16 08:31:37;;;;;;;1.25;0.73;;;;;;;;;;5032178;28;20044;-53
2021/03/16 08:34:07;;;;;;;1.35;0.80;;;;;;;;;;5031880;28;20037;-48
2021/03/16 08:36:41;;;;;;;2.15;1.10;;;;;;;;;;5031547;28;20549;-49
2021/03/16 08:39:08;;;;;;;1.90;0.70;;;;;;;;;;5029167;28;21514;-48
2021/03/16 08:41:35;;;;;;;1.40;0.80;;;;;;;;;;5030360;28;20029;-49
2021/03/16 08:44:03;;;;;;;2.97;0.80;;;;;;;;;;5031808;28;20025;-49
2021/03/16 08:46:36;;;;;;;1.30;0.73;;;;;;;;;;5031525;28;20044;-47
2021/03/16 08:49:04;;;;;;;1.77;0.70;;;;;;;;;;5031143;28;20090;-48
2021/03/16 08:51:33;;;;;;;2.22;0.90;;;;;;;;;;5027918;28;20029;-46
2021/03/16 08:54:00;;;;;;;1.00;0.70;;;;;;;;;;5031687;28;20049;-48
2021/03/16 08:56:27;;;;;;;1.13;0.70;;;;;;;;;;5031414;28;20032;-47
2021/03/16 08:58:55;;;;;;;0.93;0.65;;;;;;;;;;5031763;28;20063;-49
2021/03/16 09:01:29;;;;;;;1.73;0.70;;;;;;;;;;5027115;28;20037;-48
2021/03/16 09:03:59;;;;;;;0.68;0.50;;;;;;;;;;5031665;28;20493;-48
2021/03/16 09:06:26;;;;;;;1.65;0.85;;;;;;;;;;5027852;28;20018;-47
2021/03/16 09:08:53;;;;;;;1.42;0.70;;;;;;;;;;5020341;28;20068;-48
2021/03/16 09:11:31;;;;;;;1.17;0.65;;;;;;;;;;5022359;28;20181;-47
2021/03/16 09:14:13;;;;;;;2.47;0.70;;;;;;;;;;5026363;28;20045;-48
2021/03/16 09:16:44;;;;;;;1.50;0.75;;;;;;;;;;5014016;28;20060;-47
2021/03/16 09:19:12;;;;;;;1.77;0.93;;;;;;;;;;5027713;28;20028;-50
2021/03/16 09:21:48;;;;;;;1.25;0.80;;;;;;;;;;5030579;28;20125;-47
2021/03/16 09:24:18;;;;;;;3.85;1.00;;;;;;;;;;5029262;28;20524;-50
2021/03/16 09:26:51;;;;;;;9.40;0.98;;;;;;;;;;5025251;28;20071;-49
2021/03/16 09:29:17;;;;;;;;;;;;;;;;;;5027516;28;20064;-51
2021/03/16 09:31:45;;;;;;;2.88;1.00;;;;;;;;;;5024153;28;20028;-52
2021/03/16 09:34:15;;;;;;;3.10;0.90;;;;;;;;;;5027575;28;20148;-51
2021/03/16 09:36:42;;;;;;;3.75;0.95;;;;;;;;;;5024173;28;20030;-55
2021/03/16 09:39:11;;;;;;;3.67;1.10;;;;;;;;;;5023892;28;20021;-57
2021/03/16 09:41:38;;;;;;;2.30;1.00;;;;;;;;;;5024422;28;20482;-55
2021/03/16 09:44:05;;;;;;;2.33;1.10;;;;;;;;;;5034662;28;20048;-59
2021/03/16 09:46:32;;;;;;;4.60;0.98;;;;;;;;;;5034923;28;20374;-59
2021/03/16 09:48:59;;;;;;;6.20;1.25;;;;;;;;;;5034544;28;20061;-59
2021/03/16 09:51:28;;;;;;;3.70;1.00;;;;;;;;;;5029343;28;20041;-58
2021/03/16 09:53:59;;;;;;;2.20;1.35;;;;;;;;;;5034767;28;20014;-59
2021/03/16 09:56:27;;;;;;;5.53;1.20;;;;;;;;;;5034385;28;20025;-57
2021/03/16 09:58:57;;;;;;;3.88;1.00;;;;;;;;;;5034590;28;20469;-59
2021/03/16 10:01:25;;;;;;;1.95;1.08;;;;;;;;;;5030098;28;20087;-59
2021/03/16 10:04:13;;;;;;;2.92;1.10;;;;;;;;;;5034916;28;20539;-60
2021/03/16 10:06:44;;;;;;;2.85;1.35;;;;;;;;;;5034720;28;20032;-59
2021/03/16 10:09:17;;;;;;;3.40;1.17;;;;;;;;;;5034257;28;20025;-59
2021/03/16 10:11:44;;;;;;;4.90;1.33;;;;;;;;;;5029630;28;20328;-58
2021/03/16 10:14:11;;;;;;;6.07;1.10;;;;;;;;;;5034656;28;20028;-60
2021/03/16 10:16:39;;;;;;;3.83;1.30;;;;;;;;;;5034367;28;20048;-59
2021/03/16 10:19:06;;;;;;;1.58;1.13;;;;;;;;;;5034284;28;20018;-60
2021/03/16 10:21:34;;;;;;;2.40;1.20;;;;;;;;;;5031451;28;20584;-59
2021/03/16 10:24:04;;;;;;;2.53;1.40;;;;;;;;;;5032430;28;20036;-57
2021/03/16 10:26:31;;;;;;;3.03;1.48;;;;;;;;;;5033839;28;20030;-60
2021/03/16 10:29:09;;;;;;;4.55;1.58;;;;;;;;;;5034230;28;20156;-58
2021/03/16 10:31:40;;;;;;;3.42;1.15;;;;;;;;;;5031864;28;20080;-57
2021/03/16 10:34:07;;;;;;;2.75;1.65;;;;;;;;;;5023513;28;20080;-54
2021/03/16 10:36:37;;;;;;;6.32;1.40;;;;;;;;;;5025145;28;20052;-57
2021/03/16 10:39:05;;;;;;;2.00;1.25;;;;;;;;;;5033522;28;20033;-57
2021/03/16 10:41:32;;;;;;;6.82;1.30;;;;;;;;;;5022439;28;20018;-57
2021/03/16 10:43:59;;;;;;;4.65;1.88;;;;;;;;;;5017261;28;20057;-57
2021/03/16 10:46:26;;;;;;;5.72;1.77;;;;;;;;;;5028721;28;20026;-59
2021/03/16 10:48:53;;;;;;;5.15;1.73;;;;;;;;;;5030079;28;20052;-58
2021/03/16 10:51:20;;;;;;;6.05;1.50;;;;;;;;;;5026842;28;20497;-60
2021/03/16 10:53:47;;;;;;;3.90;1.65;;;;;;;;;;5019422;28;20025;-57
2021/03/16 10:56:13;;;;;;;3.92;1.50;;;;;;;;;;5029050;28;20021;-57
2021/03/16 10:58:40;;;;;;;3.35;1.60;;;;;;;;;;5027744;28;20381;-59
2021/03/16 11:01:07;;;;;;;1.80;1.33;;;;;;;;;;5030724;28;20029;-59
2021/03/16 11:03:34;;;;;;;2.40;1.27;;;;;;;;;;5023754;28;20024;-57
2021/03/16 11:06:01;;;;;;;3.35;1.70;;;;;;;;;;5030618;28;20080;-58
2021/03/16 11:08:28;;;;;;;4.05;1.23;;;;;;;;;;5027805;28;20052;-59
2021/03/16 11:10:55;;;;;;;2.42;1.52;;;;;;;;;;5024572;28;20504;-55
2021/03/16 11:13:22;;;;;;;10.70;2.28;;;;;;;;;;5026943;28;20048;-53
2021/03/16 11:15:49;;;;;;;15.23;2.22;;;;;;;;;;5025950;28;20026;-60
2021/03/16 11:18:20;;;;;;;28.45;4.20;;;;;;;;;;5021687;28;20106;-53
2021/03/16 11:20:47;;;;;;;23.25;3.30;;;;;;;;;;5031088;28;20744;-64
2021/03/16 11:23:14;;;;;;;10.07;2.80;;;;;;;;;;5021455;28;20030;-66
2021/03/16 11:25:41;;;;;;;177.98;14.88;;;;;;;;;;5010602;28;20022;-61
2021/03/16 11:28:08;;;;;;;51.67;6.25;;;;;;;;;;5028239;28;20022;-63
2021/03/16 11:30:35;;;;;;;20.63;3.30;;;;;;;;;;5030904;28;20121;-63
2021/03/16 11:33:02;;;;;;;8.38;2.78;;;;;;;;;;5030720;28;20036;-51
2021/03/16 11:38:33;;;;;;;10.55;2.75;;;;;;;;;;5021775;28;20033;-52
2021/03/16 11:41:01;;;;;;;14.13;2.25;;;;;;;;;;5017133;28;20030;-50
2021/03/16 11:43:28;;;;;;;19.25;3.00;;;;;;;;;;5012304;28;20018;-52
2021/03/16 11:45:55;;;;;;;17.10;3.25;;;;;;;;;;5016548;28;20026;-53
2021/03/16 11:48:22;;;;;;;37.63;3.50;;;;;;;;;;5021503;28;20045;-59
2021/03/16 11:50:49;;;;;;;20.98;3.00;;;;;;;;;;5020969;28;20030;-57
2021/03/16 11:53:16;;;;;;;8.73;2.28;;;;;;;;;;5019922;28;20038;-57
2021/03/16 11:55:43;;;;;;;34.88;4.68;;;;;;;;;;5025251;28;20375;-57
2021/03/16 11:58:10;;;;;;;72.15;12.43;;;;;;;;;;5027832;28;21314;-53
2021/03/16 12:00:37;;;;;;;55.28;8.65;;;;;;;;;;5012313;28;20659;-64
2021/03/16 12:03:04;;;;;;;48.67;7.22;;;;;;;;;;5012971;28;20030;-59
2021/03/16 12:05:31;;;;;;;43.97;6.97;;;;;;;;;;5015919;28;20014;-57
2021/03/16 12:07:58;;;;;;;43.75;6.75;;;;;;;;;;5025747;28;20021;-62
2021/03/16 12:10:25;;;;;;;33.60;5.40;;;;;;;;;;5029457;28;20064;-58
2021/03/16 12:12:52;;;;;;;33.38;5.55;;;;;;;;;;5031345;28;20470;-60
2021/03/16 12:15:21;;;;;;;25.75;4.50;;;;;;;;;;5026523;28;20409;-57
2021/03/16 12:17:48;;;;;;;17.20;3.65;;;;;;;;;;5017756;28;20052;-54
2021/03/16 12:20:15;;;;;;;31.50;5.25;;;;;;;;;;5031067;28;20165;-54
2021/03/16 12:22:42;;;;;;;27.85;4.15;;;;;;;;;;5031291;28;20381;-50
2021/03/16 12:25:10;;;;;;;19.98;3.60;;;;;;;;;;5024047;28;20037;-49
2021/03/16 12:27:38;;;;;;;19.85;3.53;;;;;;;;;;5031345;28;20052;-53
2021/03/16 12:30:09;;;;;;;23.50;3.33;;;;;;;;;;5030916;28;20158;-49
2021/03/16 12:32:39;;;;;;;9.30;2.60;;;;;;;;;;5028947;28;20508;-51
2021/03/16 12:35:07;;;;;;;15.77;3.28;;;;;;;;;;5012028;28;20525;-51
2021/03/16 12:37:34;;;;;;;11.70;2.60;;;;;;;;;;5016702;28;20018;-54
2021/03/16 12:40:03;;;;;;;26.30;3.35;;;;;;;;;;5011733;28;20117;-53
2021/03/16 12:42:31;;;;;;;25.65;3.60;;;;;;;;;;5011110;28;20033;-53
2021/03/16 12:44:58;;;;;;;21.58;2.72;;;;;;;;;;5011589;28;20034;-54
2021/03/16 12:47:25;;;;;;;26.70;3.13;;;;;;;;;;5017408;28;20028;-52
2021/03/16 12:49:53;;;;;;;22.25;3.05;;;;;;;;;;5011228;28;20046;-54
2021/03/16 12:52:20;;;;;;;23.55;2.97;;;;;;;;;;5011411;28;20044;-59
2021/03/16 12:54:49;;;;;;;21.60;3.13;;;;;;;;;;5013618;28;20014;-55
2021/03/16 12:57:17;;;;;;;23.92;2.70;;;;;;;;;;5021961;28;20390;-48
2021/03/16 12:59:45;;;;;;;18.17;2.67;;;;;;;;;;5015297;28;20104;-56
2021/03/16 13:02:12;;;;;;;15.57;2.63;;;;;;;;;;5015308;28;20445;-56
2021/03/16 13:04:39;;;;;;;8.68;2.30;;;;;;;;;;5015549;28;20417;-57
2021/03/16 13:07:07;;;;;;;11.18;2.20;;;;;;;;;;5023706;28;20529;-56
2021/03/16 13:09:34;;;;;;;8.88;2.15;;;;;;;;;;5028121;28;20025;-54
2021/03/16 13:12:02;;;;;;;10.43;2.10;;;;;;;;;;5030694;28;20441;-61
2021/03/16 13:14:29;;;;;;;6.68;2.05;;;;;;;;;;5034717;28;20014;-55
2021/03/16 13:17:01;;;;;;;9.40;2.10;;;;;;;;;;5030089;28;20474;-56
2021/03/16 13:19:28;;;;;;;10.50;2.17;;;;;;;;;;5029072;28;20077;-55
2021/03/16 13:21:55;;;;;;;9.05;2.30;;;;;;;;;;5026302;28;20021;-62
2021/03/16 13:24:22;;;;;;;4.55;1.88;;;;;;;;;;5012058;28;20025;-54
2021/03/16 13:26:49;;;;;;;5.28;1.63;;;;;;;;;;5022404;28;20029;-53
2021/03/16 13:29:16;;;;;;;6.28;1.90;;;;;;;;;;5022976;28;20049;-52
2021/03/16 13:31:43;;;;;;;4.93;2.08;;;;;;;;;;5024568;28;20065;-53
2021/03/16 13:34:10;;;;;;;3.70;1.85;;;;;;;;;;5026506;28;20041;-50
2021/03/16 13:36:37;;;;;;;4.47;1.90;;;;;;;;;;5022503;28;20030;-57
2021/03/16 13:39:04;;;;;;;6.93;2.40;;;;;;;;;;5032099;28;20049;-53
2021/03/16 13:41:31;;;;;;;21.15;3.40;;;;;;;;;;5022436;28;20595;-61
2021/03/16 13:43:58;;;;;;;25.67;5.22;;;;;;;;;;5025964;28;20116;-54
2021/03/16 13:46:25;;;;;;;21.90;4.05;;;;;;;;;;5027833;28;20018;-53
2021/03/16 13:48:52;;;;;;;13.63;3.45;;;;;;;;;;5023371;28;20514;-52
2021/03/16 13:51:19;;;;;;;12.90;2.42;;;;;;;;;;5029006;28;20116;-55
2021/03/16 13:53:46;;;;;;;19.33;3.03;;;;;;;;;;5021750;28;20044;-49
2021/03/16 13:56:13;;;;;;;7.10;2.30;;;;;;;;;;5031108;28;20123;-49
2021/03/16 13:58:40;;;;;;;7.72;2.50;;;;;;;;;;5025706;28;20033;-50
2021/03/16 14:01:07;;;;;;;11.48;2.45;;;;;;;;;;5015542;28;20036;-57
2021/03/16 14:03:34;;;;;;;11.65;2.15;;;;;;;;;;5031086;28;20504;-55
2021/03/16 14:06:02;;;;;;;8.02;2.13;;;;;;;;;;5032606;28;20077;-54
2021/03/16 14:08:29;;;;;;;5.80;2.10;;;;;;;;;;5025414;28;20037;-56
2021/03/16 14:10:57;;;;;;;8.13;2.00;;;;;;;;;;5032270;28;20545;-48
2021/03/16 14:13:24;;;;;;;7.88;1.80;;;;;;;;;;5033368;28;20052;-60
2021/03/16 14:15:51;;;;;;;9.65;2.17;;;;;;;;;;5022816;28;20025;-57
2021/03/16 14:18:18;;;;;;;14.65;2.65;;;;;;;;;;5028385;28;20053;-52
2021/03/16 14:20:46;;;;;;;7.57;1.70;;;;;;;;;;5029150;28;20096;-54
2021/03/16 14:23:13;;;;;;;6.30;2.13;;;;;;;;;;5032064;28;20026;-58
2021/03/16 14:25:40;;;;;;;8.85;2.13;;;;;;;;;;5025418;28;20104;-54
2021/03/16 14:28:07;;;;;;;3.75;1.58;;;;;;;;;;5027610;28;20105;-51
2021/03/16 14:30:34;;;;;;;14.02;2.67;;;;;;;;;;5031997;28;20132;-56
2021/03/16 14:33:01;;;;;;;6.72;1.70;;;;;;;;;;5028972;28;20042;-63
2021/03/16 14:35:29;;;;;;;9.45;1.73;;;;;;;;;;5024343;28;20031;-58
2021/03/16 14:37:56;;;;;;;3.00;1.77;;;;;;;;;;5004752;28;20742;-61
2021/03/16 14:40:23;;;;;;;5.82;1.77;;;;;;;;;;5030939;28;20036;-60
2021/03/16 14:42:50;;;;;;;12.68;2.65;;;;;;;;;;5027906;28;20040;-55
2021/03/16 14:45:17;;;;;;;24.83;4.25;;;;;;;;;;5018979;28;20064;-51
2021/03/16 14:47:44;;;;;;;32.95;4.43;;;;;;;;;;5031174;28;20037;-59
2021/03/16 14:50:11;;;;;;;18.33;4.40;;;;;;;;;;5026126;28;20473;-49
2021/03/16 14:52:38;;;;;;;15.82;3.55;;;;;;;;;;5029800;28;20060;-49